sensor_id;sensor_type;location;lat;lon;timestamp;P1;durP1;ratioP1;P2;durP2;ratioP2
66702;SDS011;60933;46.398;-63.798;2022-11-20T00:00:12;4.82;;;2.40;;
66702;SDS011;60933;46.398;-63.798;2022-11-20T00:02:38;4.50;;;2.35;;
66702;SDS011;60933;46.398;-63.798;2022-11-20T00:05:05;4.35;;;2.20;;
66702;SDS011;60933;46.398;-63.798;2022-11-20T00:07:31;5.60;;;2.83;;
66702;SDS011;60933;46.398;-63.798;2022-11-20T00:12:23;6.20;;;2.83;;
66702;SDS011;60933;46.398;-63.798;2022-11-20T00:17:15;4.95;;;2.60;;
66702;SDS011;60933;46.398;-63.798;2022-11-20T00:19:42;4.35;;;2.40;;
66702;SDS011;60933;46.398;-63.798;2022-11-20T00:22:08;4.22;;;2.25;;
66702;SDS011;60933;46.398;-63.798;2022-11-20T00:24:34;4.72;;;2.90;;
66702;SDS011;60933;46.398;-63.798;2022-11-20T00:29:26;14.23;;;4.47;;
66702;SDS011;60933;46.398;-63.798;2022-11-20T00:31:52;14.20;;;4.55;;
66702;SDS011;60933;46.398;-63.798;2022-11-20T00:36:44;6.60;;;2.65;;
66702;SDS011;60933;46.398;-63.798;2022-11-20T00:39:10;9.27;;;3.45;;
66702;SDS011;60933;46.398;-63.798;2022-11-20T00:41:36;5.90;;;2.78;;
66702;SDS011;60933;46.398;-63.798;2022-11-20T00:44:02;5.10;;;2.15;;
66702;SDS011;60933;46.398;-63.798;2022-11-20T00:48:54;5.93;;;2.38;;
66702;SDS011;60933;46.398;-63.798;2022-11-20T00:51:21;4.20;;;2.25;;
66702;SDS011;60933;46.398;-63.798;2022-11-20T00:53:49;4.28;;;2.28;;
66702;SDS011;60933;46.398;-63.798;2022-11-20T00:56:16;4.85;;;2.45;;
66702;SDS011;60933;46.398;-63.798;2022-11-20T00:58:44;3.20;;;2.05;;
66702;SDS011;60933;46.398;-63.798;2022-11-20T01:01:20;4.97;;;2.35;;
66702;SDS011;60933;46.398;-63.798;2022-11-20T01:03:49;4.55;;;2.42;;
66702;SDS011;60933;46.398;-63.798;2022-11-20T01:06:18;5.72;;;2.70;;
66702;SDS011;60933;46.398;-63.798;2022-11-20T01:08:46;4.25;;;2.60;;
66702;SDS011;60933;46.398;-63.798;2022-11-20T01:11:15;3.83;;;2.40;;
66702;SDS011;60933;46.398;-63.798;2022-11-20T01:13:47;3.97;;;1.50;;
66702;SDS011;60933;46.398;-63.798;2022-11-20T01:16:16;4.50;;;2.00;;
66702;SDS011;60933;46.398;-63.798;2022-11-20T01:18:46;4.70;;;2.15;;
66702;SDS011;60933;46.398;-63.798;2022-11-20T01:21:15;3.47;;;2.30;;
66702;SDS011;60933;46.398;-63.798;2022-11-20T01:23:43;4.95;;;2.50;;
66702;SDS011;60933;46.398;-63.798;2022-11-20T01:26:13;2.70;;;1.73;;
66702;SDS011;60933;46.398;-63.798;2022-11-20T01:28:50;5.28;;;2.78;;
66702;SDS011;60933;46.398;-63.798;2022-11-20T01:31:20;4.35;;;2.33;;
66702;SDS011;60933;46.398;-63.798;2022-11-20T01:33:51;3.90;;;2.17;;
66702;SDS011;60933;46.398;-63.798;2022-11-20T01:36:19;4.40;;;2.30;;
66702;SDS011;60933;46.398;-63.798;2022-11-20T01:38:46;3.58;;;2.05;;
66702;SDS011;60933;46.398;-63.798;2022-11-20T01:41:13;4.45;;;2.45;;
66702;SDS011;60933;46.398;-63.798;2022-11-20T01:44:00;5.60;;;2.85;;
66702;SDS011;60933;46.398;-63.798;2022-11-20T01:46:27;5.47;;;2.65;;
66702;SDS011;60933;46.398;-63.798;2022-11-20T01:48:54;11.35;;;4.00;;
66702;SDS011;60933;46.398;-63.798;2022-11-20T01:51:48;6.60;;;2.83;;
66702;SDS011;60933;46.398;-63.798;2022-11-20T01:54:19;5.28;;;2.38;;
66702;SDS011;60933;46.398;-63.798;2022-11-20T01:56:51;4.03;;;1.90;;
66702;SDS011;60933;46.398;-63.798;2022-11-20T01:59:19;3.60;;;1.80;;
66702;SDS011;60933;46.398;-63.798;2022-11-20T02:01:47;4.47;;;2.38;;
66702;SDS011;60933;46.398;-63.798;2022-11-20T02:04:14;4.22;;;2.40;;
66702;SDS011;60933;46.398;-63.798;2022-11-20T02:06:49;5.22;;;2.55;;
66702;SDS011;60933;46.398;-63.798;2022-11-20T02:09:25;6.65;;;4.63;;
66702;SDS011;60933;46.398;-63.798;2022-11-20T02:11:52;4.35;;;2.50;;
66702;SDS011;60933;46.398;-63.798;2022-11-20T02:14:18;3.13;;;2.25;;
66702;SDS011;60933;46.398;-63.798;2022-11-20T02:16:47;4.65;;;2.55;;
66702;SDS011;60933;46.398;-63.798;2022-11-20T02:24:31;5.78;;;2.55;;
66702;SDS011;60933;46.398;-63.798;2022-11-20T02:26:59;2.63;;;1.98;;
66702;SDS011;60933;46.398;-63.798;2022-11-20T02:29:32;3.90;;;2.50;;
66702;SDS011;60933;46.398;-63.798;2022-11-20T02:32:02;4.80;;;3.42;;
66702;SDS011;60933;46.398;-63.798;2022-11-20T02:34:28;5.03;;;2.72;;
66702;SDS011;60933;46.398;-63.798;2022-11-20T02:36:55;4.90;;;2.38;;
66702;SDS011;60933;46.398;-63.798;2022-11-20T02:39:24;5.18;;;2.42;;
66702;SDS011;60933;46.398;-63.798;2022-11-20T02:41:53;6.15;;;2.42;;
66702;SDS011;60933;46.398;-63.798;2022-11-20T02:44:21;3.33;;;2.45;;
66702;SDS011;60933;46.398;-63.798;2022-11-20T02:49:13;3.50;;;1.92;;
66702;SDS011;60933;46.398;-63.798;2022-11-20T02:54:04;2.42;;;1.60;;
66702;SDS011;60933;46.398;-63.798;2022-11-20T02:56:31;4.65;;;2.50;;
66702;SDS011;60933;46.398;-63.798;2022-11-20T02:58:57;3.47;;;1.65;;
66702;SDS011;60933;46.398;-63.798;2022-11-20T03:01:23;2.92;;;2.45;;
66702;SDS011;60933;46.398;-63.798;2022-11-20T03:06:16;3.70;;;2.28;;
66702;SDS011;60933;46.398;-63.798;2022-11-20T03:08:42;5.18;;;2.03;;
66702;SDS011;60933;46.398;-63.798;2022-11-20T03:11:09;3.53;;;1.80;;
66702;SDS011;60933;46.398;-63.798;2022-11-20T03:13:35;3.00;;;2.03;;
66702;SDS011;60933;46.398;-63.798;2022-11-20T03:18:31;3.95;;;2.17;;
66702;SDS011;60933;46.398;-63.798;2022-11-20T03:23:24;4.30;;;1.70;;
66702;SDS011;60933;46.398;-63.798;2022-11-20T03:25:50;2.58;;;1.70;;
66702;SDS011;60933;46.398;-63.798;2022-11-20T03:28:17;2.83;;;1.75;;
66702;SDS011;60933;46.398;-63.798;2022-11-20T03:33:10;3.47;;;1.73;;
66702;SDS011;60933;46.398;-63.798;2022-11-20T03:35:37;3.05;;;2.22;;
66702;SDS011;60933;46.398;-63.798;2022-11-20T03:40:29;3.33;;;1.35;;
66702;SDS011;60933;46.398;-63.798;2022-11-20T03:45:21;4.40;;;2.08;;
66702;SDS011;60933;46.398;-63.798;2022-11-20T03:47:47;4.95;;;2.83;;
66702;SDS011;60933;46.398;-63.798;2022-11-20T03:52:39;3.95;;;2.08;;
66702;SDS011;60933;46.398;-63.798;2022-11-20T03:55:06;3.33;;;2.15;;
66702;SDS011;60933;46.398;-63.798;2022-11-20T03:57:33;4.47;;;2.67;;
66702;SDS011;60933;46.398;-63.798;2022-11-20T03:59:59;2.95;;;1.67;;
66702;SDS011;60933;46.398;-63.798;2022-11-20T04:02:25;3.25;;;1.90;;
66702;SDS011;60933;46.398;-63.798;2022-11-20T04:07:17;4.45;;;2.05;;
66702;SDS011;60933;46.398;-63.798;2022-11-20T04:12:09;3.53;;;1.80;;
66702;SDS011;60933;46.398;-63.798;2022-11-20T04:17:01;3.75;;;1.60;;
66702;SDS011;60933;46.398;-63.798;2022-11-20T04:19:27;4.15;;;2.20;;
66702;SDS011;60933;46.398;-63.798;2022-11-20T04:21:53;4.15;;;1.98;;
66702;SDS011;60933;46.398;-63.798;2022-11-20T04:26:45;5.40;;;2.20;;
66702;SDS011;60933;46.398;-63.798;2022-11-20T04:31:37;2.50;;;1.63;;
66702;SDS011;60933;46.398;-63.798;2022-11-20T04:34:04;3.85;;;2.00;;
66702;SDS011;60933;46.398;-63.798;2022-11-20T04:36:31;2.53;;;1.70;;
66702;SDS011;60933;46.398;-63.798;2022-11-20T04:38:59;3.58;;;2.00;;
66702;SDS011;60933;46.398;-63.798;2022-11-20T04:41:31;3.75;;;2.10;;
66702;SDS011;60933;46.398;-63.798;2022-11-20T04:43:59;4.00;;;2.83;;
66702;SDS011;60933;46.398;-63.798;2022-11-20T04:46:34;3.50;;;2.40;;
66702;SDS011;60933;46.398;-63.798;2022-11-20T04:49:02;2.95;;;2.17;;
66702;SDS011;60933;46.398;-63.798;2022-11-20T04:51:29;2.90;;;2.33;;
66702;SDS011;60933;46.398;-63.798;2022-11-20T04:53:55;5.40;;;2.33;;
66702;SDS011;60933;46.398;-63.798;2022-11-20T04:56:22;4.10;;;2.78;;
66702;SDS011;60933;46.398;-63.798;2022-11-20T04:58:48;3.20;;;2.42;;
66702;SDS011;60933;46.398;-63.798;2022-11-20T05:01:15;5.13;;;2.65;;
66702;SDS011;60933;46.398;-63.798;2022-11-20T05:03:44;3.72;;;2.22;;
66702;SDS011;60933;46.398;-63.798;2022-11-20T05:06:11;5.20;;;2.63;;
66702;SDS011;60933;46.398;-63.798;2022-11-20T05:08:39;4.93;;;2.67;;
66702;SDS011;60933;46.398;-63.798;2022-11-20T05:11:06;3.30;;;2.63;;
66702;SDS011;60933;46.398;-63.798;2022-11-20T05:13:34;3.55;;;2.30;;
66702;SDS011;60933;46.398;-63.798;2022-11-20T05:16:02;6.90;;;2.95;;
66702;SDS011;60933;46.398;-63.798;2022-11-20T05:18:33;5.78;;;3.28;;
66702;SDS011;60933;46.398;-63.798;2022-11-20T05:21:00;4.38;;;2.70;;
66702;SDS011;60933;46.398;-63.798;2022-11-20T05:23:26;5.57;;;2.58;;
66702;SDS011;60933;46.398;-63.798;2022-11-20T05:25:55;4.95;;;3.08;;
66702;SDS011;60933;46.398;-63.798;2022-11-20T05:28:22;4.93;;;2.63;;
66702;SDS011;60933;46.398;-63.798;2022-11-20T05:30:48;4.50;;;2.92;;
66702;SDS011;60933;46.398;-63.798;2022-11-20T05:33:15;6.03;;;3.13;;
66702;SDS011;60933;46.398;-63.798;2022-11-20T05:35:42;8.48;;;4.20;;
66702;SDS011;60933;46.398;-63.798;2022-11-20T05:38:08;12.35;;;4.10;;
66702;SDS011;60933;46.398;-63.798;2022-11-20T05:40:34;14.98;;;5.00;;
66702;SDS011;60933;46.398;-63.798;2022-11-20T05:43:01;9.35;;;3.90;;
66702;SDS011;60933;46.398;-63.798;2022-11-20T05:45:27;8.73;;;4.57;;
66702;SDS011;60933;46.398;-63.798;2022-11-20T05:47:57;8.25;;;3.17;;
66702;SDS011;60933;46.398;-63.798;2022-11-20T05:50:25;12.43;;;4.25;;
66702;SDS011;60933;46.398;-63.798;2022-11-20T05:52:52;10.88;;;4.05;;
66702;SDS011;60933;46.398;-63.798;2022-11-20T05:57:44;6.50;;;3.70;;
66702;SDS011;60933;46.398;-63.798;2022-11-20T06:02:36;5.05;;;1.90;;
66702;SDS011;60933;46.398;-63.798;2022-11-20T06:05:02;5.65;;;2.83;;
66702;SDS011;60933;46.398;-63.798;2022-11-20T06:07:28;4.20;;;1.80;;
66702;SDS011;60933;46.398;-63.798;2022-11-20T06:12:20;3.20;;;1.88;;
66702;SDS011;60933;46.398;-63.798;2022-11-20T06:17:13;3.05;;;1.50;;
66702;SDS011;60933;46.398;-63.798;2022-11-20T06:19:39;2.00;;;1.58;;
66702;SDS011;60933;46.398;-63.798;2022-11-20T06:24:31;2.38;;;2.00;;
66702;SDS011;60933;46.398;-63.798;2022-11-20T06:29:23;3.03;;;1.98;;
66702;SDS011;60933;46.398;-63.798;2022-11-20T15:50:09;6.82;;;1.17;;
66702;SDS011;60933;46.398;-63.798;2022-11-20T15:52:43;7.85;;;1.77;;
66702;SDS011;60933;46.398;-63.798;2022-11-20T15:55:10;4.70;;;2.22;;
66702;SDS011;60933;46.398;-63.798;2022-11-20T15:57:59;4.05;;;2.15;;
66702;SDS011;60933;46.398;-63.798;2022-11-20T16:00:35;5.18;;;3.05;;
66702;SDS011;60933;46.398;-63.798;2022-11-20T16:03:13;5.20;;;2.20;;
66702;SDS011;60933;46.398;-63.798;2022-11-20T16:05:41;2.70;;;1.83;;
66702;SDS011;60933;46.398;-63.798;2022-11-20T16:08:07;4.63;;;1.45;;
66702;SDS011;60933;46.398;-63.798;2022-11-20T16:10:34;5.63;;;2.00;;
66702;SDS011;60933;46.398;-63.798;2022-11-20T16:13:00;4.53;;;2.00;;
66702;SDS011;60933;46.398;-63.798;2022-11-20T16:15:46;8.57;;;2.83;;
66702;SDS011;60933;46.398;-63.798;2022-11-20T16:18:18;6.10;;;2.10;;
66702;SDS011;60933;46.398;-63.798;2022-11-20T16:20:48;8.38;;;2.67;;
66702;SDS011;60933;46.398;-63.798;2022-11-20T16:23:16;3.30;;;2.03;;
66702;SDS011;60933;46.398;-63.798;2022-11-20T16:25:42;4.93;;;2.38;;
66702;SDS011;60933;46.398;-63.798;2022-11-20T16:28:09;9.65;;;3.13;;
66702;SDS011;60933;46.398;-63.798;2022-11-20T16:30:37;7.32;;;2.80;;
66702;SDS011;60933;46.398;-63.798;2022-11-20T16:33:03;3.67;;;1.65;;
66702;SDS011;60933;46.398;-63.798;2022-11-20T16:35:30;5.45;;;1.52;;
66702;SDS011;60933;46.398;-63.798;2022-11-20T16:37:57;3.40;;;1.92;;
66702;SDS011;60933;46.398;-63.798;2022-11-20T16:40:24;4.05;;;1.45;;
66702;SDS011;60933;46.398;-63.798;2022-11-20T16:42:50;3.35;;;1.48;;
66702;SDS011;60933;46.398;-63.798;2022-11-20T16:45:17;5.35;;;1.40;;
66702;SDS011;60933;46.398;-63.798;2022-11-20T16:47:43;7.28;;;1.98;;
66702;SDS011;60933;46.398;-63.798;2022-11-20T16:50:10;5.10;;;1.83;;
66702;SDS011;60933;46.398;-63.798;2022-11-20T16:52:36;6.30;;;2.25;;
66702;SDS011;60933;46.398;-63.798;2022-11-20T16:55:02;4.15;;;2.80;;
66702;SDS011;60933;46.398;-63.798;2022-11-20T16:57:29;4.50;;;2.35;;
66702;SDS011;60933;46.398;-63.798;2022-11-20T16:59:58;4.28;;;1.55;;
66702;SDS011;60933;46.398;-63.798;2022-11-20T17:02:25;3.92;;;1.63;;
66702;SDS011;60933;46.398;-63.798;2022-11-20T17:04:51;3.10;;;1.30;;
66702;SDS011;60933;46.398;-63.798;2022-11-20T17:07:18;3.03;;;1.45;;
66702;SDS011;60933;46.398;-63.798;2022-11-20T17:09:47;6.55;;;1.23;;
66702;SDS011;60933;46.398;-63.798;2022-11-20T17:12:13;2.97;;;1.63;;
66702;SDS011;60933;46.398;-63.798;2022-11-20T17:14:42;4.80;;;1.95;;
66702;SDS011;60933;46.398;-63.798;2022-11-20T17:17:09;1.80;;;0.93;;
66702;SDS011;60933;46.398;-63.798;2022-11-20T17:19:35;4.18;;;0.80;;
66702;SDS011;60933;46.398;-63.798;2022-11-20T17:22:01;2.90;;;0.93;;
66702;SDS011;60933;46.398;-63.798;2022-11-20T17:24:27;3.00;;;0.90;;
66702;SDS011;60933;46.398;-63.798;2022-11-20T17:26:53;4.65;;;1.30;;
66702;SDS011;60933;46.398;-63.798;2022-11-20T17:29:19;6.47;;;1.02;;
66702;SDS011;60933;46.398;-63.798;2022-11-20T17:31:48;1.23;;;0.63;;
66702;SDS011;60933;46.398;-63.798;2022-11-20T17:34:15;3.53;;;1.67;;
66702;SDS011;60933;46.398;-63.798;2022-11-20T17:36:42;4.50;;;0.70;;
66702;SDS011;60933;46.398;-63.798;2022-11-20T17:39:13;5.75;;;0.90;;
66702;SDS011;60933;46.398;-63.798;2022-11-20T17:41:40;3.45;;;0.95;;
66702;SDS011;60933;46.398;-63.798;2022-11-20T17:44:08;2.85;;;0.90;;
66702;SDS011;60933;46.398;-63.798;2022-11-20T17:46:35;4.68;;;0.80;;
66702;SDS011;60933;46.398;-63.798;2022-11-20T17:49:01;6.43;;;1.15;;
66702;SDS011;60933;46.398;-63.798;2022-11-20T17:51:29;5.38;;;1.38;;
66702;SDS011;60933;46.398;-63.798;2022-11-20T17:53:57;4.05;;;1.73;;
66702;SDS011;60933;46.398;-63.798;2022-11-20T17:56:25;4.00;;;1.40;;
66702;SDS011;60933;46.398;-63.798;2022-11-20T17:59:13;7.60;;;2.08;;
66702;SDS011;60933;46.398;-63.798;2022-11-20T18:01:40;4.72;;;1.45;;
66702;SDS011;60933;46.398;-63.798;2022-11-20T18:04:07;6.20;;;1.58;;
66702;SDS011;60933;46.398;-63.798;2022-11-20T18:06:33;4.40;;;1.58;;
66702;SDS011;60933;46.398;-63.798;2022-11-20T18:09:00;6.90;;;1.40;;
66702;SDS011;60933;46.398;-63.798;2022-11-20T18:11:31;4.90;;;1.13;;
66702;SDS011;60933;46.398;-63.798;2022-11-20T18:14:02;4.30;;;1.30;;
66702;SDS011;60933;46.398;-63.798;2022-11-20T18:16:51;1.92;;;0.93;;
66702;SDS011;60933;46.398;-63.798;2022-11-20T18:19:22;3.85;;;0.90;;
66702;SDS011;60933;46.398;-63.798;2022-11-20T18:21:50;4.55;;;1.15;;
66702;SDS011;60933;46.398;-63.798;2022-11-20T18:24:16;3.95;;;1.40;;
66702;SDS011;60933;46.398;-63.798;2022-11-20T18:26:43;3.90;;;1.23;;
66702;SDS011;60933;46.398;-63.798;2022-11-20T18:29:09;3.92;;;1.42;;
66702;SDS011;60933;46.398;-63.798;2022-11-20T18:31:36;3.40;;;1.08;;
66702;SDS011;60933;46.398;-63.798;2022-11-20T18:34:20;6.88;;;1.73;;
66702;SDS011;60933;46.398;-63.798;2022-11-20T18:36:46;3.47;;;1.27;;
66702;SDS011;60933;46.398;-63.798;2022-11-20T18:39:13;6.25;;;1.00;;
66702;SDS011;60933;46.398;-63.798;2022-11-20T18:41:43;3.65;;;0.80;;
66702;SDS011;60933;46.398;-63.798;2022-11-20T18:44:31;2.08;;;0.88;;
66702;SDS011;60933;46.398;-63.798;2022-11-20T18:47:18;2.75;;;0.85;;
66702;SDS011;60933;46.398;-63.798;2022-11-20T18:49:52;2.75;;;1.40;;
66702;SDS011;60933;46.398;-63.798;2022-11-20T18:52:25;2.97;;;1.02;;
66702;SDS011;60933;46.398;-63.798;2022-11-20T18:54:53;2.45;;;0.77;;
66702;SDS011;60933;46.398;-63.798;2022-11-20T18:57:21;4.90;;;0.90;;
66702;SDS011;60933;46.398;-63.798;2022-11-20T18:59:49;3.53;;;0.93;;
66702;SDS011;60933;46.398;-63.798;2022-11-20T19:02:17;10.88;;;1.20;;
66702;SDS011;60933;46.398;-63.798;2022-11-20T19:04:46;2.42;;;0.68;;
66702;SDS011;60933;46.398;-63.798;2022-11-20T19:07:13;2.78;;;0.50;;
66702;SDS011;60933;46.398;-63.798;2022-11-20T19:09:40;1.70;;;0.60;;
66702;SDS011;60933;46.398;-63.798;2022-11-20T19:12:08;1.00;;;0.40;;
66702;SDS011;60933;46.398;-63.798;2022-11-20T19:14:36;2.20;;;0.65;;
66702;SDS011;60933;46.398;-63.798;2022-11-20T19:17:05;2.63;;;0.88;;
66702;SDS011;60933;46.398;-63.798;2022-11-20T19:19:32;1.85;;;0.93;;
66702;SDS011;60933;46.398;-63.798;2022-11-20T19:21:59;1.80;;;0.70;;
66702;SDS011;60933;46.398;-63.798;2022-11-20T19:24:25;1.77;;;0.68;;
66702;SDS011;60933;46.398;-63.798;2022-11-20T19:26:52;1.33;;;0.63;;
66702;SDS011;60933;46.398;-63.798;2022-11-20T19:29:20;0.95;;;0.60;;
66702;SDS011;60933;46.398;-63.798;2022-11-20T19:31:47;3.55;;;0.63;;
66702;SDS011;60933;46.398;-63.798;2022-11-20T19:34:13;1.83;;;0.60;;
66702;SDS011;60933;46.398;-63.798;2022-11-20T19:36:40;7.40;;;0.70;;
66702;SDS011;60933;46.398;-63.798;2022-11-20T19:39:07;1.88;;;0.60;;
66702;SDS011;60933;46.398;-63.798;2022-11-20T19:41:35;0.75;;;0.45;;
66702;SDS011;60933;46.398;-63.798;2022-11-20T19:44:04;2.45;;;0.70;;
66702;SDS011;60933;46.398;-63.798;2022-11-20T19:46:32;2.10;;;0.90;;
66702;SDS011;60933;46.398;-63.798;2022-11-20T19:48:59;1.65;;;0.50;;
66702;SDS011;60933;46.398;-63.798;2022-11-20T19:51:26;1.83;;;0.70;;
66702;SDS011;60933;46.398;-63.798;2022-11-20T19:53:55;4.97;;;0.73;;
66702;SDS011;60933;46.398;-63.798;2022-11-20T19:56:22;1.83;;;0.70;;
66702;SDS011;60933;46.398;-63.798;2022-11-20T19:58:49;3.42;;;0.70;;
66702;SDS011;60933;46.398;-63.798;2022-11-20T20:01:19;4.93;;;1.10;;
66702;SDS011;60933;46.398;-63.798;2022-11-20T20:03:46;2.00;;;0.95;;
66702;SDS011;60933;46.398;-63.798;2022-11-20T20:06:17;3.75;;;1.38;;
66702;SDS011;60933;46.398;-63.798;2022-11-20T20:08:57;3.92;;;1.15;;
66702;SDS011;60933;46.398;-63.798;2022-11-20T20:11:26;2.08;;;1.27;;
66702;SDS011;60933;46.398;-63.798;2022-11-20T20:13:53;2.20;;;1.17;;
66702;SDS011;60933;46.398;-63.798;2022-11-20T20:16:21;4.10;;;1.00;;
66702;SDS011;60933;46.398;-63.798;2022-11-20T20:18:48;2.97;;;1.20;;
66702;SDS011;60933;46.398;-63.798;2022-11-20T20:21:19;5.80;;;1.38;;
66702;SDS011;60933;46.398;-63.798;2022-11-20T20:23:48;3.10;;;1.40;;
66702;SDS011;60933;46.398;-63.798;2022-11-20T20:26:19;2.92;;;1.23;;
66702;SDS011;60933;46.398;-63.798;2022-11-20T20:28:47;1.63;;;0.95;;
66702;SDS011;60933;46.398;-63.798;2022-11-20T20:31:15;3.13;;;1.15;;
66702;SDS011;60933;46.398;-63.798;2022-11-20T20:33:43;5.68;;;1.45;;
66702;SDS011;60933;46.398;-63.798;2022-11-20T20:36:10;2.38;;;1.40;;
66702;SDS011;60933;46.398;-63.798;2022-11-20T20:38:38;1.85;;;0.82;;
66702;SDS011;60933;46.398;-63.798;2022-11-20T20:41:06;3.08;;;1.73;;
66702;SDS011;60933;46.398;-63.798;2022-11-20T20:43:32;2.40;;;0.85;;
66702;SDS011;60933;46.398;-63.798;2022-11-20T20:46:18;6.30;;;1.05;;
66702;SDS011;60933;46.398;-63.798;2022-11-20T20:48:45;2.13;;;1.10;;
66702;SDS011;60933;46.398;-63.798;2022-11-20T20:51:11;5.90;;;1.05;;
66702;SDS011;60933;46.398;-63.798;2022-11-20T20:53:37;3.00;;;1.10;;
66702;SDS011;60933;46.398;-63.798;2022-11-20T20:56:03;2.58;;;1.00;;
66702;SDS011;60933;46.398;-63.798;2022-11-20T20:58:30;3.25;;;1.10;;
66702;SDS011;60933;46.398;-63.798;2022-11-20T21:01:03;1.95;;;1.00;;
66702;SDS011;60933;46.398;-63.798;2022-11-20T21:03:32;2.38;;;1.17;;
66702;SDS011;60933;46.398;-63.798;2022-11-20T21:05:59;3.85;;;1.40;;
66702;SDS011;60933;46.398;-63.798;2022-11-20T21:08:25;3.45;;;1.33;;
66702;SDS011;60933;46.398;-63.798;2022-11-20T21:11:12;1.60;;;0.90;;
66702;SDS011;60933;46.398;-63.798;2022-11-20T21:13:40;2.50;;;1.05;;
66702;SDS011;60933;46.398;-63.798;2022-11-20T21:16:07;2.53;;;1.05;;
66702;SDS011;60933;46.398;-63.798;2022-11-20T21:18:34;1.58;;;0.80;;
66702;SDS011;60933;46.398;-63.798;2022-11-20T21:21:07;1.67;;;1.17;;
66702;SDS011;60933;46.398;-63.798;2022-11-20T21:23:54;2.63;;;1.40;;
66702;SDS011;60933;46.398;-63.798;2022-11-20T21:26:21;5.18;;;1.52;;
66702;SDS011;60933;46.398;-63.798;2022-11-20T21:28:47;3.88;;;1.17;;
66702;SDS011;60933;46.398;-63.798;2022-11-20T21:31:17;1.60;;;0.80;;
66702;SDS011;60933;46.398;-63.798;2022-11-20T21:33:53;1.27;;;0.93;;
66702;SDS011;60933;46.398;-63.798;2022-11-20T21:36:22;1.70;;;1.10;;
66702;SDS011;60933;46.398;-63.798;2022-11-20T21:38:50;1.13;;;0.80;;
66702;SDS011;60933;46.398;-63.798;2022-11-20T21:41:18;2.72;;;0.95;;
66702;SDS011;60933;46.398;-63.798;2022-11-20T21:43:44;1.98;;;1.10;;
66702;SDS011;60933;46.398;-63.798;2022-11-20T21:46:11;1.50;;;1.00;;
66702;SDS011;60933;46.398;-63.798;2022-11-20T21:48:39;2.70;;;0.82;;
66702;SDS011;60933;46.398;-63.798;2022-11-20T21:51:10;1.83;;;1.05;;
66702;SDS011;60933;46.398;-63.798;2022-11-20T21:53:41;1.02;;;0.77;;
66702;SDS011;60933;46.398;-63.798;2022-11-20T21:56:08;1.58;;;0.77;;
66702;SDS011;60933;46.398;-63.798;2022-11-20T21:58:36;3.90;;;0.80;;
66702;SDS011;60933;46.398;-63.798;2022-11-20T22:01:09;2.10;;;1.00;;
66702;SDS011;60933;46.398;-63.798;2022-11-20T22:03:40;2.38;;;0.70;;
66702;SDS011;60933;46.398;-63.798;2022-11-20T22:06:07;3.05;;;0.95;;
66702;SDS011;60933;46.398;-63.798;2022-11-20T22:08:35;1.73;;;0.60;;
66702;SDS011;60933;46.398;-63.798;2022-11-20T22:11:03;2.72;;;1.17;;
66702;SDS011;60933;46.398;-63.798;2022-11-20T22:13:33;1.25;;;0.57;;
66702;SDS011;60933;46.398;-63.798;2022-11-20T22:16:18;1.10;;;0.70;;
66702;SDS011;60933;46.398;-63.798;2022-11-20T22:18:45;1.13;;;0.60;;
66702;SDS011;60933;46.398;-63.798;2022-11-20T22:21:13;2.30;;;1.33;;
66702;SDS011;60933;46.398;-63.798;2022-11-20T22:23:41;3.00;;;0.70;;
66702;SDS011;60933;46.398;-63.798;2022-11-20T22:26:11;3.05;;;0.88;;
66702;SDS011;60933;46.398;-63.798;2022-11-20T22:28:39;1.67;;;0.60;;
66702;SDS011;60933;46.398;-63.798;2022-11-20T22:31:07;1.95;;;0.75;;
66702;SDS011;60933;46.398;-63.798;2022-11-20T22:33:35;1.25;;;0.80;;
66702;SDS011;60933;46.398;-63.798;2022-11-20T22:38:30;2.65;;;1.02;;
66702;SDS011;60933;46.398;-63.798;2022-11-20T22:41:08;3.05;;;0.85;;
66702;SDS011;60933;46.398;-63.798;2022-11-20T22:43:45;1.60;;;0.70;;
66702;SDS011;60933;46.398;-63.798;2022-11-20T22:46:12;2.42;;;1.23;;
66702;SDS011;60933;46.398;-63.798;2022-11-20T22:48:41;0.82;;;0.77;;
66702;SDS011;60933;46.398;-63.798;2022-11-20T22:51:12;3.55;;;1.55;;
66702;SDS011;60933;46.398;-63.798;2022-11-20T22:53:41;3.35;;;0.90;;
66702;SDS011;60933;46.398;-63.798;2022-11-20T22:56:09;0.95;;;0.50;;
66702;SDS011;60933;46.398;-63.798;2022-11-20T22:58:40;2.60;;;0.80;;
66702;SDS011;60933;46.398;-63.798;2022-11-20T23:01:12;1.60;;;0.77;;
66702;SDS011;60933;46.398;-63.798;2022-11-20T23:03:55;2.38;;;0.63;;
66702;SDS011;60933;46.398;-63.798;2022-11-20T23:06:23;1.15;;;0.70;;
66702;SDS011;60933;46.398;-63.798;2022-11-20T23:08:49;2.47;;;1.17;;
66702;SDS011;60933;46.398;-63.798;2022-11-20T23:11:20;2.30;;;1.23;;
66702;SDS011;60933;46.398;-63.798;2022-11-20T23:13:51;1.45;;;1.00;;
66702;SDS011;60933;46.398;-63.798;2022-11-20T23:16:20;2.33;;;0.90;;
66702;SDS011;60933;46.398;-63.798;2022-11-20T23:18:47;1.20;;;1.00;;
66702;SDS011;60933;46.398;-63.798;2022-11-20T23:23:40;2.65;;;1.00;;
66702;SDS011;60933;46.398;-63.798;2022-11-20T23:26:08;2.10;;;0.85;;
66702;SDS011;60933;46.398;-63.798;2022-11-20T23:28:36;3.30;;;1.40;;
66702;SDS011;60933;46.398;-63.798;2022-11-20T23:31:03;1.45;;;0.90;;
66702;SDS011;60933;46.398;-63.798;2022-11-20T23:33:29;1.67;;;0.70;;
66702;SDS011;60933;46.398;-63.798;2022-11-20T23:35:56;4.38;;;1.35;;
66702;SDS011;60933;46.398;-63.798;2022-11-20T23:38:22;3.35;;;0.90;;
66702;SDS011;60933;46.398;-63.798;2022-11-20T23:40:49;3.47;;;1.20;;
66702;SDS011;60933;46.398;-63.798;2022-11-20T23:43:15;3.20;;;1.08;;
66702;SDS011;60933;46.398;-63.798;2022-11-20T23:45:50;2.13;;;1.15;;
66702;SDS011;60933;46.398;-63.798;2022-11-20T23:48:18;1.77;;;1.13;;
66702;SDS011;60933;46.398;-63.798;2022-11-20T23:50:46;1.85;;;0.90;;
66702;SDS011;60933;46.398;-63.798;2022-11-20T23:53:12;1.73;;;0.95;;
66702;SDS011;60933;46.398;-63.798;2022-11-20T23:55:43;2.03;;;0.80;;
66702;SDS011;60933;46.398;-63.798;2022-11-20T23:58:13;1.70;;;0.70;;
